createdAt,value
2023-05-08T00:01:45.842Z,9.70
2023-05-08T00:04:13.807Z,9.40
2023-05-08T00:06:41.452Z,9.40
2023-05-08T00:09:08.904Z,9.30
2023-05-08T00:11:36.363Z,9.70
2023-05-08T00:14:04.026Z,9.50
2023-05-08T00:16:32.263Z,9.50
2023-05-08T00:19:00.658Z,9.60
2023-05-08T00:21:28.189Z,9.40
2023-05-08T00:23:55.763Z,9.40
2023-05-08T00:26:23.336Z,9.30
2023-05-08T00:28:50.971Z,9.40
2023-05-08T00:31:18.650Z,9.40
2023-05-08T00:33:46.206Z,9.30
2023-05-08T00:36:15.804Z,9.30
2023-05-08T00:38:43.361Z,9.40
2023-05-08T00:41:10.846Z,9.80
2023-05-08T00:43:40.122Z,9.30
2023-05-08T00:46:09.915Z,9.60
2023-05-08T00:48:39.607Z,9.70
2023-05-08T00:51:09.489Z,9.70
2023-05-08T00:53:39.873Z,9.70
2023-05-08T00:56:13.541Z,9.30
2023-05-08T00:58:42.172Z,9.70
2023-05-08T01:01:10.958Z,9.60
2023-05-08T01:03:38.844Z,9.70
2023-05-08T01:06:07.039Z,9.50
2023-05-08T01:08:35.129Z,9.70
2023-05-08T01:11:26.006Z,9.70
2023-05-08T01:14:05.993Z,9.40
2023-05-08T01:16:49.802Z,9.30
2023-05-08T01:19:46.524Z,9.20
2023-05-08T01:22:51.105Z,9.20
2023-05-08T01:25:46.056Z,9.60
2023-05-08T01:28:35.386Z,9.50
2023-05-08T01:31:15.385Z,9.20
2023-05-08T01:34:01.944Z,9.60
2023-05-08T01:36:51.743Z,9.20
2023-05-08T01:39:48.473Z,9.20
2023-05-08T01:42:23.458Z,9.60
2023-05-08T01:45:06.134Z,9.10
2023-05-08T01:47:38.123Z,9.60
2023-05-08T01:50:45.097Z,9.60
2023-05-08T01:53:34.833Z,9.60
2023-05-08T01:56:12.085Z,9.30
2023-05-08T01:58:41.881Z,9.60
2023-05-08T02:01:12.830Z,9.60
2023-05-08T02:03:42.818Z,9.50
2023-05-08T02:06:12.990Z,9.30
2023-05-08T02:08:43.350Z,9.40
2023-05-08T02:11:12.721Z,9.30
2023-05-08T02:13:41.460Z,9.30
2023-05-08T02:16:11.633Z,9.60
2023-05-08T02:18:43.109Z,9.70
2023-05-08T02:21:12.824Z,9.70
2023-05-08T02:23:43.818Z,9.30
2023-05-08T02:26:14.017Z,9.40
2023-05-08T02:28:42.658Z,9.40
2023-05-08T02:31:12.191Z,9.30
2023-05-08T02:33:42.271Z,9.20
2023-05-08T02:36:13.354Z,9.20
2023-05-08T02:38:44.247Z,9.70
2023-05-08T02:41:13.395Z,9.70
2023-05-08T02:43:41.534Z,9.20
2023-05-08T02:46:26.417Z,9.50
2023-05-08T02:49:07.224Z,9.30
2023-05-08T02:51:56.406Z,9.70
2023-05-08T02:54:35.770Z,9.30
2023-05-08T02:57:21.962Z,9.80
2023-05-08T03:00:04.335Z,9.30
2023-05-08T03:02:39.419Z,9.30
2023-05-08T03:05:15.912Z,9.60
2023-05-08T03:07:45.247Z,9.50
2023-05-08T03:10:16.162Z,9.40
2023-05-08T03:12:47.707Z,9.60
2023-05-08T03:15:33.247Z,9.30
2023-05-08T03:18:06.785Z,9.30
2023-05-08T03:20:38.893Z,9.50
2023-05-08T03:23:10.354Z,9.50
2023-05-08T03:25:41.204Z,9.70
2023-05-08T03:28:10.610Z,9.70
2023-05-08T03:30:41.636Z,9.80
2023-05-08T03:33:13.251Z,9.50
2023-05-08T03:35:41.521Z,9.80
2023-05-08T03:38:10.851Z,9.90
2023-05-08T03:40:44.859Z,9.90
2023-05-08T03:43:12.997Z,9.90
2023-05-08T03:45:41.334Z,9.50
2023-05-08T03:48:09.976Z,9.40
2023-05-08T03:50:38.998Z,9.90
2023-05-08T03:53:09.641Z,9.70
2023-05-08T03:55:37.871Z,9.80
2023-05-08T03:58:34.088Z,9.50
2023-05-08T04:01:11.019Z,9.60
2023-05-08T04:03:53.837Z,9.90
2023-05-08T04:06:30.777Z,9.90
2023-05-08T04:09:28.257Z,9.40
2023-05-08T04:12:16.091Z,9.70
2023-05-08T04:14:54.212Z,9.80
2023-05-08T04:17:41.409Z,9.90
2023-05-08T04:20:14.753Z,9.50
2023-05-08T04:22:44.513Z,9.90
2023-05-08T04:25:15.389Z,10.00
2023-05-08T04:27:44.312Z,9.60
2023-05-08T04:30:13.483Z,10.00
2023-05-08T04:32:44.251Z,9.80
2023-05-08T04:35:14.660Z,10.00
2023-05-08T04:37:43.795Z,9.70
2023-05-08T04:40:12.021Z,9.90
2023-05-08T04:42:43.059Z,10.10
2023-05-08T04:45:11.918Z,9.60
2023-05-08T04:47:39.823Z,9.70
2023-05-08T04:50:07.787Z,9.90
2023-05-08T04:52:36.369Z,10.10
2023-05-08T04:55:04.114Z,9.90
2023-05-08T04:57:35.119Z,10.00
2023-05-08T05:00:03.356Z,9.60
2023-05-08T05:02:32.370Z,9.70
2023-05-08T05:05:01.364Z,10.10
2023-05-08T05:07:30.028Z,10.10
2023-05-08T05:09:58.071Z,9.90
2023-05-08T05:12:25.709Z,10.20
2023-05-08T05:14:53.410Z,10.20
2023-05-08T05:17:21.030Z,10.30
2023-05-08T05:19:49.192Z,10.20
2023-05-08T05:22:17.811Z,10.00
2023-05-08T05:24:46.295Z,10.30
2023-05-08T05:27:14.093Z,9.80
2023-05-08T05:29:41.611Z,10.30
2023-05-08T05:32:10.299Z,9.90
2023-05-08T05:34:38.376Z,10.40
2023-05-08T05:37:06.928Z,9.90
2023-05-08T05:39:35.961Z,10.20
2023-05-08T05:42:03.572Z,9.90
2023-05-08T05:44:31.147Z,10.40
2023-05-08T05:46:58.691Z,10.00
2023-05-08T05:49:26.347Z,10.00
2023-05-08T05:51:53.940Z,10.00
2023-05-08T05:54:21.626Z,10.30
2023-05-08T05:56:49.071Z,10.60
2023-05-08T05:59:16.635Z,10.10
2023-05-08T06:01:44.452Z,10.10
2023-05-08T06:04:12.181Z,10.60
2023-05-08T06:06:40.054Z,10.60
2023-05-08T06:09:07.552Z,10.60
2023-05-08T06:11:35.141Z,10.70
2023-05-08T06:14:02.790Z,10.50
2023-05-08T06:16:30.786Z,10.70
2023-05-08T06:18:58.290Z,10.60
2023-05-08T06:21:26.802Z,10.20
2023-05-08T06:23:54.738Z,10.60
2023-05-08T06:26:23.639Z,10.30
2023-05-08T06:28:51.175Z,10.30
2023-05-08T06:31:19.241Z,10.30
2023-05-08T06:33:46.801Z,10.80
2023-05-08T06:36:14.254Z,10.90
2023-05-08T06:38:41.734Z,10.40
2023-05-08T06:41:09.550Z,10.70
2023-05-08T06:43:37.043Z,10.80
2023-05-08T06:46:07.155Z,11.00
2023-05-08T06:48:34.648Z,11.00
2023-05-08T06:51:02.704Z,10.50
2023-05-08T06:53:30.697Z,10.50
2023-05-08T06:55:58.870Z,10.60
2023-05-08T06:58:26.552Z,10.60
2023-05-08T07:00:53.965Z,11.00
2023-05-08T07:03:21.651Z,11.10
2023-05-08T07:05:49.122Z,11.10
2023-05-08T07:08:17.859Z,10.60
2023-05-08T07:10:45.665Z,10.70
2023-05-08T07:13:13.260Z,11.10
2023-05-08T07:15:41.187Z,11.20
2023-05-08T07:18:08.802Z,11.10
2023-05-08T07:20:36.348Z,10.90
2023-05-08T07:23:03.946Z,10.90
2023-05-08T07:25:31.522Z,10.90
2023-05-08T07:28:01.118Z,10.90
2023-05-08T07:30:29.114Z,11.00
2023-05-08T07:32:56.633Z,11.40
2023-05-08T07:35:24.215Z,11.10
2023-05-08T07:37:51.671Z,10.90
2023-05-08T07:40:19.151Z,11.30
2023-05-08T07:42:46.634Z,11.00
2023-05-08T07:45:14.608Z,10.90
2023-05-08T07:47:57.434Z,11.30
2023-05-08T07:50:26.581Z,11.30
2023-05-08T07:52:54.425Z,10.90
2023-05-08T07:55:21.962Z,10.80
2023-05-08T07:57:49.421Z,11.00
2023-05-08T08:00:17.447Z,11.00
2023-05-08T08:02:45.589Z,11.10
2023-05-08T08:05:13.388Z,10.80
2023-05-08T08:07:41.230Z,11.30
2023-05-08T08:10:09.131Z,10.80
2023-05-08T08:12:36.774Z,11.40
2023-05-08T08:15:04.705Z,11.00
2023-05-08T08:17:32.217Z,11.50
2023-05-08T08:19:59.793Z,11.30
2023-05-08T08:22:27.397Z,11.20
2023-05-08T08:24:57.901Z,11.30
2023-05-08T08:27:25.397Z,11.30
2023-05-08T08:30:04.510Z,11.70
2023-05-08T08:32:36.137Z,11.40
2023-05-08T08:35:03.800Z,11.60
2023-05-08T08:37:31.255Z,11.30
2023-05-08T08:39:59.774Z,11.40
2023-05-08T08:42:27.339Z,11.50
2023-05-08T08:44:56.072Z,11.90
2023-05-08T08:47:34.843Z,11.90
2023-05-08T08:50:03.969Z,11.90
2023-05-08T08:52:54.819Z,11.70
2023-05-08T08:55:23.543Z,11.90
2023-05-08T08:58:01.213Z,11.60
2023-05-08T09:00:32.622Z,11.40
2023-05-08T09:03:00.723Z,12.00
2023-05-08T09:05:28.676Z,11.40
2023-05-08T09:07:56.593Z,11.50
2023-05-08T09:10:27.070Z,12.00
2023-05-08T09:12:54.738Z,12.00
2023-05-08T09:15:22.286Z,11.50
2023-05-08T09:17:50.024Z,11.80
2023-05-08T09:20:17.754Z,11.80
2023-05-08T09:22:46.113Z,11.60
2023-05-08T09:25:13.966Z,11.50
2023-05-08T09:27:41.642Z,11.80
2023-05-08T09:30:11.200Z,11.40
2023-05-08T09:32:41.609Z,11.40
2023-05-08T09:35:10.494Z,11.30
2023-05-08T09:37:43.108Z,11.30
2023-05-08T09:40:21.822Z,11.50
2023-05-08T09:42:50.832Z,11.20
2023-05-08T09:45:32.430Z,11.60
2023-05-08T09:48:00.172Z,11.60
2023-05-08T09:50:27.847Z,11.60
2023-05-08T09:52:55.813Z,11.10
2023-05-08T09:55:23.278Z,11.10
2023-05-08T09:57:59.081Z,11.10
2023-05-08T10:00:28.091Z,11.50
2023-05-08T10:03:03.181Z,11.20
2023-05-08T10:05:36.541Z,11.50
2023-05-08T10:08:29.918Z,11.20
2023-05-08T10:11:21.393Z,11.50
2023-05-08T10:13:48.821Z,11.30
2023-05-08T10:16:18.814Z,11.50
2023-05-08T10:18:50.896Z,11.60
2023-05-08T10:21:20.382Z,11.40
2023-05-08T10:23:50.684Z,11.30
2023-05-08T10:26:27.451Z,11.60
2023-05-08T10:29:01.996Z,11.80
2023-05-08T10:31:34.129Z,11.60
2023-05-08T10:34:03.607Z,11.80
2023-05-08T10:36:32.513Z,11.40
2023-05-08T10:39:00.071Z,11.80
2023-05-08T10:41:28.290Z,11.70
2023-05-08T10:43:56.543Z,11.90
2023-05-08T10:46:43.999Z,11.80
2023-05-08T10:49:34.843Z,11.60
2023-05-08T10:52:21.311Z,11.40
2023-05-08T10:55:04.803Z,11.80
2023-05-08T10:57:32.338Z,11.50
2023-05-08T10:59:59.895Z,11.50
2023-05-08T11:02:32.921Z,11.90
2023-05-08T11:05:16.832Z,11.60
2023-05-08T11:08:14.272Z,11.50
2023-05-08T11:10:43.544Z,11.90
2023-05-08T11:13:12.453Z,11.50
2023-05-08T11:15:41.375Z,11.60
2023-05-08T11:18:16.256Z,11.80
2023-05-08T11:21:01.008Z,11.60
2023-05-08T11:23:30.160Z,11.70
2023-05-08T11:26:01.396Z,11.60
2023-05-08T11:28:33.286Z,11.20
2023-05-08T11:31:06.835Z,11.70
2023-05-08T11:33:41.307Z,11.60
2023-05-08T11:36:24.637Z,11.20
2023-05-08T11:39:18.446Z,11.60
2023-05-08T11:41:47.954Z,11.20
2023-05-08T11:44:23.587Z,11.30
2023-05-08T11:46:53.849Z,11.20
2023-05-08T11:49:29.171Z,11.20
2023-05-08T11:51:59.182Z,11.60
2023-05-08T11:54:30.520Z,11.60
2023-05-08T11:56:59.757Z,11.10
2023-05-08T11:59:27.394Z,11.20
2023-05-08T12:04:25.936Z,11.40
2023-05-08T12:06:58.724Z,11.30
2023-05-08T12:09:26.344Z,11.70
2023-05-08T12:11:58.052Z,11.70
2023-05-08T12:14:25.843Z,11.20
2023-05-08T12:16:53.344Z,11.70
2023-05-08T12:19:20.928Z,11.20
2023-05-08T12:21:49.070Z,11.60
2023-05-08T12:24:23.540Z,11.40
2023-05-08T12:26:56.131Z,11.80
2023-05-08T12:29:24.141Z,11.30
2023-05-08T12:31:53.163Z,11.30
2023-05-08T12:34:21.512Z,11.20
2023-05-08T12:36:49.008Z,11.40
2023-05-08T12:39:17.993Z,11.80
2023-05-08T12:41:49.516Z,11.80
2023-05-08T12:44:20.906Z,11.30
2023-05-08T12:46:51.426Z,11.60
2023-05-08T12:49:29.311Z,11.40
2023-05-08T12:52:07.070Z,11.70
2023-05-08T12:54:39.013Z,11.20
2023-05-08T12:57:11.009Z,11.60
2023-05-08T12:59:38.996Z,11.30
2023-05-08T13:02:21.028Z,11.30
2023-05-08T13:04:48.754Z,11.80
2023-05-08T13:07:16.378Z,11.50
2023-05-08T13:09:57.868Z,11.40
2023-05-08T13:12:25.703Z,11.40
2023-05-08T13:14:53.162Z,11.50
2023-05-08T13:17:20.750Z,11.70
2023-05-08T13:19:48.283Z,11.80
2023-05-08T13:22:15.739Z,11.70
2023-05-08T13:24:43.194Z,12.10
2023-05-08T13:27:10.802Z,12.20
2023-05-08T13:29:38.214Z,12.00
2023-05-08T13:32:05.930Z,11.70
2023-05-08T13:34:33.472Z,11.70
2023-05-08T13:37:01.498Z,12.30
2023-05-08T13:39:31.112Z,12.20
2023-05-08T13:41:58.869Z,12.30
2023-05-08T13:44:26.442Z,12.40
2023-05-08T13:46:53.986Z,12.10
2023-05-08T13:49:24.230Z,12.60
2023-05-08T13:51:56.658Z,12.50
2023-05-08T13:54:24.884Z,12.70
2023-05-08T13:56:53.949Z,12.20
2023-05-08T13:59:21.507Z,12.70
2023-05-08T14:01:48.922Z,12.40
2023-05-08T14:04:16.459Z,12.60
2023-05-08T14:06:43.883Z,12.20
2023-05-08T14:09:11.621Z,12.10
2023-05-08T14:11:39.099Z,12.30
2023-05-08T14:14:06.662Z,12.70
2023-05-08T14:16:34.351Z,12.30
2023-05-08T14:19:01.929Z,12.80
2023-05-08T14:21:29.445Z,12.70
2023-05-08T14:23:57.184Z,12.30
2023-05-08T14:26:24.659Z,12.90
2023-05-08T14:28:52.130Z,12.70
2023-05-08T14:31:19.761Z,13.10
2023-05-08T14:33:47.242Z,13.10
2023-05-08T14:36:14.705Z,12.60
2023-05-08T14:38:42.206Z,12.70
2023-05-08T14:41:09.756Z,12.70
2023-05-08T14:43:37.286Z,13.00
2023-05-08T14:46:04.964Z,13.20
2023-05-08T14:48:32.443Z,12.90
2023-05-08T14:51:00.104Z,13.20
2023-05-08T14:53:27.889Z,12.80
2023-05-08T14:55:55.764Z,13.10
2023-05-08T14:58:23.409Z,13.20
2023-05-08T15:00:51.022Z,13.20
2023-05-08T15:03:18.770Z,13.20
2023-05-08T15:05:47.301Z,12.60
2023-05-08T15:08:14.935Z,13.20
2023-05-08T15:10:43.015Z,12.80
2023-05-08T15:13:10.529Z,13.10
2023-05-08T15:15:38.123Z,13.10
2023-05-08T15:18:05.728Z,12.80
2023-05-08T15:20:33.270Z,13.20
2023-05-08T15:23:00.817Z,13.20
2023-05-08T15:25:28.369Z,12.70
2023-05-08T15:27:56.791Z,12.70
2023-05-08T15:30:25.310Z,12.80
2023-05-08T15:32:52.848Z,12.90
2023-05-08T15:35:20.459Z,13.00
2023-05-08T15:37:47.933Z,13.30
2023-05-08T15:40:15.880Z,12.80
2023-05-08T15:42:43.354Z,13.40
2023-05-08T15:45:10.858Z,13.40
2023-05-08T15:47:38.390Z,13.20
2023-05-08T15:50:06.431Z,13.20
2023-05-08T15:52:33.858Z,13.30
2023-05-08T15:55:01.438Z,12.90
2023-05-08T15:57:28.932Z,13.20
2023-05-08T15:59:56.421Z,13.00
2023-05-08T16:02:23.950Z,12.90
2023-05-08T16:04:51.604Z,13.30
2023-05-08T16:07:19.021Z,13.30
2023-05-08T16:09:46.663Z,13.40
2023-05-08T16:12:14.231Z,13.30
2023-05-08T16:14:41.886Z,13.60
2023-05-08T16:17:09.502Z,13.60
2023-05-08T16:19:38.469Z,13.30
2023-05-08T16:22:06.954Z,13.80
2023-05-08T16:24:34.508Z,13.40
2023-05-08T16:27:02.044Z,13.70
2023-05-08T16:29:29.500Z,13.50
2023-05-08T16:31:57.211Z,13.50
2023-05-08T16:34:24.721Z,14.00
2023-05-08T16:36:52.220Z,13.60
2023-05-08T16:39:19.761Z,13.60
2023-05-08T16:41:47.219Z,13.80
2023-05-08T16:44:15.197Z,13.80
2023-05-08T16:46:42.774Z,13.90
2023-05-08T16:49:10.387Z,13.90
2023-05-08T16:51:37.809Z,13.90
2023-05-08T16:54:05.516Z,14.20
2023-05-08T16:56:32.983Z,13.80
2023-05-08T16:59:02.033Z,14.00
2023-05-08T17:01:29.661Z,13.90
2023-05-08T17:03:57.274Z,13.40
2023-05-08T17:06:24.824Z,13.90
2023-05-08T17:08:52.407Z,13.70
2023-05-08T17:11:19.919Z,13.80
2023-05-08T17:13:48.121Z,13.40
2023-05-08T17:16:17.731Z,13.30
2023-05-08T17:18:47.381Z,13.20
2023-05-08T17:21:14.798Z,13.30
2023-05-08T17:23:42.414Z,13.40
2023-05-08T17:26:09.974Z,13.20
2023-05-08T17:28:37.581Z,13.10
2023-05-08T17:31:05.285Z,13.50
2023-05-08T17:33:33.557Z,13.40
2023-05-08T17:36:02.108Z,13.50
2023-05-08T17:38:29.622Z,13.40
2023-05-08T17:40:57.218Z,13.00
2023-05-08T17:43:25.813Z,12.90
2023-05-08T17:45:53.237Z,12.90
2023-05-08T17:48:20.954Z,12.80
2023-05-08T17:50:48.382Z,13.00
2023-05-08T17:53:16.002Z,12.60
2023-05-08T17:55:43.495Z,12.50
2023-05-08T17:58:11.023Z,12.30
2023-05-08T18:00:38.798Z,12.30
2023-05-08T18:03:06.497Z,12.60
2023-05-08T18:05:34.027Z,12.70
2023-05-08T18:08:01.521Z,12.40
2023-05-08T18:10:29.020Z,12.70
2023-05-08T18:12:56.595Z,12.40
2023-05-08T18:15:24.195Z,12.40
2023-05-08T18:17:53.697Z,12.80
2023-05-08T18:20:21.462Z,12.50
2023-05-08T18:22:49.070Z,12.80
2023-05-08T18:25:17.515Z,12.30
2023-05-08T18:27:47.347Z,12.40
2023-05-08T18:30:15.151Z,12.50
2023-05-08T18:32:43.119Z,12.50
2023-05-08T18:35:10.814Z,12.50
2023-05-08T18:37:38.229Z,12.30
2023-05-08T18:40:06.511Z,12.10
2023-05-08T18:42:33.988Z,12.30
2023-05-08T18:45:05.702Z,12.30
2023-05-08T18:47:33.367Z,12.10
2023-05-08T18:50:01.025Z,12.40
2023-05-08T18:52:28.658Z,12.40
2023-05-08T18:54:56.093Z,12.40
2023-05-08T18:57:23.647Z,12.20
2023-05-08T18:59:51.161Z,12.50
2023-05-08T19:02:18.713Z,12.10
2023-05-08T19:04:46.526Z,12.10
2023-05-08T19:07:14.047Z,12.10
2023-05-08T19:09:41.499Z,12.50
2023-05-08T19:12:08.956Z,12.40
2023-05-08T19:14:36.440Z,12.50
2023-05-08T19:17:03.977Z,12.60
2023-05-08T19:19:31.630Z,12.60
2023-05-08T19:21:59.094Z,12.40
2023-05-08T19:24:29.922Z,12.90
2023-05-08T19:26:57.697Z,12.80
2023-05-08T19:29:25.330Z,12.70
2023-05-08T19:31:52.949Z,12.90
2023-05-08T19:34:20.573Z,13.00
2023-05-08T19:36:48.124Z,12.70
2023-05-08T19:39:15.695Z,13.20
2023-05-08T19:41:43.961Z,12.90
2023-05-08T19:44:11.635Z,13.20
2023-05-08T19:46:39.814Z,12.90
2023-05-08T19:49:07.569Z,13.00
2023-05-08T19:51:35.071Z,12.90
2023-05-08T19:54:02.683Z,13.40
2023-05-08T19:56:30.176Z,13.40
2023-05-08T19:58:57.599Z,13.00
2023-05-08T20:01:25.252Z,13.00
2023-05-08T20:03:52.857Z,13.20
2023-05-08T20:06:20.576Z,13.40
2023-05-08T20:08:48.030Z,12.90
2023-05-08T20:11:15.466Z,13.10
2023-05-08T20:13:42.939Z,13.40
2023-05-08T20:16:10.534Z,13.30
2023-05-08T20:18:38.022Z,13.30
2023-05-08T20:21:05.632Z,13.20
2023-05-08T20:23:33.140Z,13.40
2023-05-08T20:26:00.734Z,13.10
2023-05-08T20:28:28.404Z,13.00
2023-05-08T20:30:56.008Z,13.10
2023-05-08T20:33:23.511Z,13.40
2023-05-08T20:35:50.996Z,13.50
2023-05-08T20:38:18.864Z,13.20
2023-05-08T20:40:46.410Z,13.70
2023-05-08T20:43:16.754Z,13.40
2023-05-08T20:45:44.303Z,13.50
2023-05-08T20:48:11.907Z,13.40
2023-05-08T20:50:39.407Z,14.10
2023-05-08T20:53:06.861Z,13.60
2023-05-08T20:55:34.410Z,14.20
2023-05-08T20:58:03.606Z,14.20
2023-05-08T21:00:31.252Z,14.00
2023-05-08T21:02:58.835Z,13.80
2023-05-08T21:05:26.729Z,14.30
2023-05-08T21:08:00.183Z,14.00
2023-05-08T21:10:30.639Z,14.40
2023-05-08T21:12:58.244Z,14.00
2023-05-08T21:15:25.840Z,14.60
2023-05-08T21:17:54.278Z,14.10
2023-05-08T21:20:21.785Z,14.00
2023-05-08T21:22:49.365Z,14.10
2023-05-08T21:25:17.402Z,14.20
2023-05-08T21:27:44.995Z,14.10
2023-05-08T21:30:15.603Z,14.10
2023-05-08T21:32:44.323Z,14.10
2023-05-08T21:35:12.744Z,14.70
2023-05-08T21:37:40.538Z,14.60
2023-05-08T21:40:09.502Z,14.70
2023-05-08T21:42:37.023Z,14.20
2023-05-08T21:45:04.935Z,14.30
2023-05-08T21:47:32.454Z,14.70
2023-05-08T21:49:59.964Z,14.10
2023-05-08T21:52:27.553Z,14.10
2023-05-08T21:54:54.990Z,14.50
2023-05-08T21:57:22.495Z,14.60
2023-05-08T21:59:50.439Z,14.20
2023-05-08T22:02:19.161Z,14.10
2023-05-08T22:04:47.046Z,14.10
2023-05-08T22:07:14.633Z,14.50
2023-05-08T22:09:42.081Z,14.10
2023-05-08T22:12:09.821Z,14.20
2023-05-08T22:14:37.515Z,14.50
2023-05-08T22:17:05.061Z,14.20
2023-05-08T22:19:32.533Z,14.10
2023-05-08T22:22:00.074Z,14.60
2023-05-08T22:24:27.654Z,14.70
2023-05-08T22:26:55.335Z,14.20
2023-05-08T22:29:22.754Z,14.60
2023-05-08T22:31:50.542Z,14.10
2023-05-08T22:34:17.981Z,14.70
2023-05-08T22:36:45.676Z,14.60
2023-05-08T22:39:13.296Z,14.20
2023-05-08T22:41:40.926Z,14.60
2023-05-08T22:44:08.598Z,14.00
2023-05-08T22:46:36.931Z,14.50
2023-05-08T22:49:04.700Z,14.50
2023-05-08T22:51:32.721Z,14.00
2023-05-08T22:54:00.197Z,14.50
2023-05-08T22:56:27.807Z,14.10
2023-05-08T22:58:55.320Z,13.90
2023-05-08T23:01:22.931Z,14.20
2023-05-08T23:03:56.663Z,14.30
2023-05-08T23:06:24.337Z,14.10
2023-05-08T23:08:51.881Z,14.20
2023-05-08T23:11:19.409Z,14.20
2023-05-08T23:13:47.037Z,14.20
2023-05-08T23:16:14.540Z,13.70
2023-05-08T23:18:42.130Z,13.60
2023-05-08T23:21:09.628Z,13.80
2023-05-08T23:23:37.371Z,14.10
2023-05-08T23:26:05.257Z,13.60
2023-05-08T23:28:36.423Z,14.00
2023-05-08T23:31:04.501Z,13.60
2023-05-08T23:33:32.209Z,13.80
2023-05-08T23:35:59.963Z,14.00
2023-05-08T23:38:27.482Z,13.90
2023-05-08T23:40:55.032Z,13.50
2023-05-08T23:43:22.428Z,13.40
2023-05-08T23:45:49.989Z,13.50
2023-05-08T23:48:17.542Z,13.40
2023-05-08T23:50:45.182Z,13.40
2023-05-08T23:53:13.642Z,13.20
2023-05-08T23:55:41.377Z,13.50
2023-05-08T23:58:08.899Z,13.30
